M. Luther — WDC7372 — position and weather

sailwx.info

Track history (hours):
 
Tides and Currents Weather Stations Pressure Air Temp Water Temp Dewpoint Dewpoint Depression Visibility Wind Speed Wind Dir Waves Ship Positions

M. Luther

Owner: Salmon Bay Barge Line, Inc., Seattle, WA. More information available from US FCC via Universal Licensing System and Coast Guard Vessel Documentation Center.

Last reported at 2017-Jan-08 21:13 UTC. Time now 2017-Jan-23 12:48 UTC.
Position N 47°33' W 122°21'.
Warning: this ship's position is 14 days out of date.

Length 28 m; draft 4.1 m.

Type: Tow > 200 m length. MMSI: 367070410.

Date/timePositionNaut miles runAvg speedWind from/ knotsBaromVisibWave heightAir tempDewpointWater temp
2017-Jan-08 21:13N 47°33' W 122°21'0 0.0
2017-Jan-08 20:32N 47°33' W 122°21'3 3.2
2017-Jan-08 19:33N 47°36' W 122°23'5 5.3
2017-Jan-08 18:33N 47°40' W 122°29'7 7.1
2017-Jan-08 17:33N 47°47' W 122°28'7 7.0
2017-Jan-08 16:33N 47°54' W 122°30'7 6.8
2017-Jan-08 15:33N 47°59' W 122°36'13 5.6
2017-Jan-08 13:09N 48°12' W 122°45'9 5.8
2017-Jan-08 11:32N 48°21' W 122°46'7 7.0
2017-Jan-08 10:33N 48°28' W 122°45'6 6.0
2017-Jan-08 09:33N 48°34' W 122°45'5 5.0
2017-Jan-08 08:33N 48°39' W 122°44'5 5.1
2017-Jan-08 07:33N 48°43' W 122°46'7 6.4
2017-Jan-08 06:24N 48°48' W 122°55'7 6.1
2017-Jan-08 05:19N 48°52' W 123°03'6 6.5
2017-Jan-08 04:21N 48°56' W 123°10'6 7.1
2017-Jan-08 03:33N 48°59' W 123°17'6 6.4
2017-Jan-08 02:33N 49°06' W 123°19'8 8.2
2017-Jan-08 01:33N 49°07' W 123°07'5 5.0
2017-Jan-08 00:31N 49°09' W 123°00'0 0.0
2017-Jan-07 23:31N 49°09' W 123°00'0 0.0
2017-Jan-07 22:31N 49°09' W 123°00'0 0.0
2017-Jan-07 21:31N 49°09' W 123°00'0 0.0
2017-Jan-07 20:31N 49°09' W 123°00'0 0.0
2017-Jan-07 19:31N 49°09' W 123°00'0 0.0
2017-Jan-07 18:31N 49°09' W 123°00'0 0.0
2017-Jan-07 17:31N 49°09' W 123°00'0 0.0
2017-Jan-07 16:31N 49°09' W 123°00'0 0.0
2017-Jan-07 15:31N 49°09' W 123°00'0 0.0
2017-Jan-07 14:31N 49°09' W 123°00'0 0.0
2017-Jan-07 13:31N 49°09' W 123°00'0 0.0
2017-Jan-07 12:31N 49°09' W 123°00'0 0.0
2017-Jan-07 11:31N 49°09' W 123°00'0 0.0
2017-Jan-07 10:31N 49°09' W 123°00'0 0.0
2017-Jan-07 09:31N 49°09' W 123°00'0 0.0
2017-Jan-07 08:31N 49°09' W 123°00'0 0.0
2017-Jan-07 07:31N 49°09' W 123°00'0 0.0
2017-Jan-07 06:31N 49°09' W 123°00'0 0.0
2017-Jan-07 05:31N 49°09' W 123°00'0 0.0
2017-Jan-07 04:31N 49°09' W 123°00'0 0.0
2017-Jan-07 03:33N 49°09' W 123°00'0 0.0
2017-Jan-07 02:33N 49°09' W 123°00'0 0.0
2017-Jan-07 01:30N 49°09' W 123°00'0 0.0
2017-Jan-07 00:33N 49°09' W 123°00'0 0.0
2017-Jan-06 23:33N 49°09' W 123°00'0 0.0
2017-Jan-06 22:33N 49°09' W 123°00'0 0.0
2017-Jan-06 21:33N 49°09' W 123°00'0 0.0
2017-Jan-06 20:33N 49°09' W 123°00'0 0.0
2017-Jan-06 19:33N 49°09' W 123°00'0 0.0
2017-Jan-06 18:33N 49°09' W 123°00'0 0.0
2017-Jan-06 17:30N 49°09' W 123°00'0 0.0
2017-Jan-06 16:33N 49°09' W 123°00'0 0.0
2017-Jan-06 15:33N 49°09' W 123°00'0 0.0
2017-Jan-06 14:33N 49°09' W 123°00'0 0.0
2017-Jan-06 13:33N 49°09' W 123°00'0 0.0
2017-Jan-06 12:33N 49°09' W 123°00'0 0.0
2017-Jan-06 11:30N 49°09' W 123°00'0 0.0
2017-Jan-06 10:33N 49°09' W 123°00'0 0.0
2017-Jan-06 09:33N 49°09' W 123°00'0 0.0
2017-Jan-06 08:33N 49°09' W 123°00'0 0.0
2017-Jan-06 07:33N 49°09' W 123°00'0 0.0
2017-Jan-06 06:33N 49°09' W 123°00'0 0.0
2017-Jan-06 05:33N 49°09' W 123°00'0 0.0
2017-Jan-06 04:33N 49°09' W 123°00'0 0.0
2017-Jan-06 03:33N 49°09' W 123°00'0 0.0
2017-Jan-06 02:33N 49°09' W 123°00'0 0.0
2017-Jan-06 01:33N 49°09' W 123°00'0 0.0
2017-Jan-06 00:33N 49°09' W 123°00'0 0.0
2017-Jan-05 23:33N 49°09' W 123°00'0 0.0
2017-Jan-05 22:33N 49°09' W 123°00'0 0.0
2017-Jan-05 21:33N 49°09' W 123°00'0 0.0
2017-Jan-05 20:33N 49°09' W 123°00'5 5.5
2017-Jan-05 19:33N 49°07' W 123°08'6 6.5
2017-Jan-05 18:33N 49°06' W 123°17'2 2.3
2017-Jan-05 17:33N 49°05' W 123°20'6 5.6
2017-Jan-05 16:33N 49°01' W 123°14'8 7.7
2017-Jan-05 15:32N 48°56' W 123°05'8 7.3
2017-Jan-05 14:25N 48°50' W 122°56'7 6.7
2017-Jan-05 13:22N 48°46' W 122°47'6 7.5
2017-Jan-05 12:33N 48°41' W 122°42'7 6.6
2017-Jan-05 11:33N 48°35' W 122°45'7 7.1
2017-Jan-05 10:33N 48°28' W 122°44'6 5.6
2017-Jan-05 09:25N 48°21' W 122°45'21 6.8
2017-Jan-05 06:24N 48°01' W 122°37'7 8.7
2017-Jan-05 05:33N 47°56' W 122°30'8 8.3
2017-Jan-05 04:33N 47°48' W 122°26'8 7.8
2017-Jan-05 03:33N 47°40' W 122°27'6 6.4
2017-Jan-05 02:33N 47°35' W 122°22'2 1.6
2017-Jan-05 01:33N 47°33' W 122°21'0 0.0
2017-Jan-05 00:33N 47°33' W 122°21'0 0.0
2017-Jan-04 23:33N 47°33' W 122°21'1 1.2
2017-Jan-04 22:33N 47°34' W 122°21'  
Track history (hours):
 
Tides and Currents Weather Stations Pressure Air Temp Water Temp Dewpoint Dewpoint Depression Visibility Wind Speed Wind Dir Waves Ship Positions

M. Luther

Owner: Salmon Bay Barge Line, Inc., Seattle, WA. More information available from US FCC via Universal Licensing System and Coast Guard Vessel Documentation Center.

Last reported at 2017-Jan-08 21:13 UTC. Time now 2017-Jan-23 12:48 UTC.
Position N 47°33' W 122°21'.
Warning: this ship's position is 14 days out of date.

Length 28 m; draft 4.1 m.

Type: Tow > 200 m length. MMSI: 367070410.

Date/timePositionNaut miles runAvg speedWind from/ knotsBaromVisibWave heightAir tempDewpointWater temp
2017-Jan-08 21:13N 47°33' W 122°21'0 0.0
2017-Jan-08 20:32N 47°33' W 122°21'3 3.2
2017-Jan-08 19:33N 47°36' W 122°23'5 5.3
2017-Jan-08 18:33N 47°40' W 122°29'7 7.1
2017-Jan-08 17:33N 47°47' W 122°28'7 7.0
2017-Jan-08 16:33N 47°54' W 122°30'7 6.8
2017-Jan-08 15:33N 47°59' W 122°36'13 5.6
2017-Jan-08 13:09N 48°12' W 122°45'9 5.8
2017-Jan-08 11:32N 48°21' W 122°46'7 7.0
2017-Jan-08 10:33N 48°28' W 122°45'6 6.0
2017-Jan-08 09:33N 48°34' W 122°45'5 5.0
2017-Jan-08 08:33N 48°39' W 122°44'5 5.1
2017-Jan-08 07:33N 48°43' W 122°46'7 6.4
2017-Jan-08 06:24N 48°48' W 122°55'7 6.1
2017-Jan-08 05:19N 48°52' W 123°03'6 6.5
2017-Jan-08 04:21N 48°56' W 123°10'6 7.1
2017-Jan-08 03:33N 48°59' W 123°17'6 6.4
2017-Jan-08 02:33N 49°06' W 123°19'8 8.2
2017-Jan-08 01:33N 49°07' W 123°07'5 5.0
2017-Jan-08 00:31N 49°09' W 123°00'0 0.0
2017-Jan-07 23:31N 49°09' W 123°00'0 0.0
2017-Jan-07 22:31N 49°09' W 123°00'0 0.0
2017-Jan-07 21:31N 49°09' W 123°00'0 0.0
2017-Jan-07 20:31N 49°09' W 123°00'0 0.0
2017-Jan-07 19:31N 49°09' W 123°00'0 0.0
2017-Jan-07 18:31N 49°09' W 123°00'0 0.0
2017-Jan-07 17:31N 49°09' W 123°00'0 0.0
2017-Jan-07 16:31N 49°09' W 123°00'0 0.0
2017-Jan-07 15:31N 49°09' W 123°00'0 0.0
2017-Jan-07 14:31N 49°09' W 123°00'0 0.0
2017-Jan-07 13:31N 49°09' W 123°00'0 0.0
2017-Jan-07 12:31N 49°09' W 123°00'0 0.0
2017-Jan-07 11:31N 49°09' W 123°00'0 0.0
2017-Jan-07 10:31N 49°09' W 123°00'0 0.0
2017-Jan-07 09:31N 49°09' W 123°00'0 0.0
2017-Jan-07 08:31N 49°09' W 123°00'0 0.0
2017-Jan-07 07:31N 49°09' W 123°00'0 0.0
2017-Jan-07 06:31N 49°09' W 123°00'0 0.0
2017-Jan-07 05:31N 49°09' W 123°00'0 0.0
2017-Jan-07 04:31N 49°09' W 123°00'0 0.0
2017-Jan-07 03:33N 49°09' W 123°00'0 0.0
2017-Jan-07 02:33N 49°09' W 123°00'0 0.0
2017-Jan-07 01:30N 49°09' W 123°00'0 0.0
2017-Jan-07 00:33N 49°09' W 123°00'0 0.0
2017-Jan-06 23:33N 49°09' W 123°00'0 0.0
2017-Jan-06 22:33N 49°09' W 123°00'0 0.0
2017-Jan-06 21:33N 49°09' W 123°00'0 0.0
2017-Jan-06 20:33N 49°09' W 123°00'0 0.0
2017-Jan-06 19:33N 49°09' W 123°00'0 0.0
2017-Jan-06 18:33N 49°09' W 123°00'0 0.0
2017-Jan-06 17:30N 49°09' W 123°00'0 0.0
2017-Jan-06 16:33N 49°09' W 123°00'0 0.0
2017-Jan-06 15:33N 49°09' W 123°00'0 0.0
2017-Jan-06 14:33N 49°09' W 123°00'0 0.0
2017-Jan-06 13:33N 49°09' W 123°00'0 0.0
2017-Jan-06 12:33N 49°09' W 123°00'0 0.0
2017-Jan-06 11:30N 49°09' W 123°00'0 0.0
2017-Jan-06 10:33N 49°09' W 123°00'0 0.0
2017-Jan-06 09:33N 49°09' W 123°00'0 0.0
2017-Jan-06 08:33N 49°09' W 123°00'0 0.0
2017-Jan-06 07:33N 49°09' W 123°00'0 0.0
2017-Jan-06 06:33N 49°09' W 123°00'0 0.0
2017-Jan-06 05:33N 49°09' W 123°00'0 0.0
2017-Jan-06 04:33N 49°09' W 123°00'0 0.0
2017-Jan-06 03:33N 49°09' W 123°00'0 0.0
2017-Jan-06 02:33N 49°09' W 123°00'0 0.0
2017-Jan-06 01:33N 49°09' W 123°00'0 0.0
2017-Jan-06 00:33N 49°09' W 123°00'0 0.0
2017-Jan-05 23:33N 49°09' W 123°00'0 0.0
2017-Jan-05 22:33N 49°09' W 123°00'0 0.0
2017-Jan-05 21:33N 49°09' W 123°00'0 0.0
2017-Jan-05 20:33N 49°09' W 123°00'5 5.5
2017-Jan-05 19:33N 49°07' W 123°08'6 6.5
2017-Jan-05 18:33N 49°06' W 123°17'2 2.3
2017-Jan-05 17:33N 49°05' W 123°20'6 5.6
2017-Jan-05 16:33N 49°01' W 123°14'8 7.7
2017-Jan-05 15:32N 48°56' W 123°05'8 7.3
2017-Jan-05 14:25N 48°50' W 122°56'7 6.7
2017-Jan-05 13:22N 48°46' W 122°47'6 7.5
2017-Jan-05 12:33N 48°41' W 122°42'7 6.6
2017-Jan-05 11:33N 48°35' W 122°45'7 7.1
2017-Jan-05 10:33N 48°28' W 122°44'6 5.6
2017-Jan-05 09:25N 48°21' W 122°45'21 6.8
2017-Jan-05 06:24N 48°01' W 122°37'7 8.7
2017-Jan-05 05:33N 47°56' W 122°30'8 8.3
2017-Jan-05 04:33N 47°48' W 122°26'8 7.8
2017-Jan-05 03:33N 47°40' W 122°27'6 6.4
2017-Jan-05 02:33N 47°35' W 122°22'2 1.6
2017-Jan-05 01:33N 47°33' W 122°21'0 0.0
2017-Jan-05 00:33N 47°33' W 122°21'0 0.0
2017-Jan-04 23:33N 47°33' W 122°21'1 1.2
2017-Jan-04 22:33N 47°34' W 122°21'  

Dump ship's entire track history